createdAt,value
2022-12-20T00:02:17.069Z,101050.72
2022-12-20T00:04:47.037Z,101056.03
2022-12-20T00:07:16.900Z,101051.75
2022-12-20T00:09:46.718Z,101045.72
2022-12-20T00:12:19.747Z,101049.22
2022-12-20T00:14:49.597Z,101037.94
2022-12-20T00:17:19.404Z,101045.00
2022-12-20T00:19:49.206Z,101031.91
2022-12-20T00:22:19.026Z,101035.50
2022-12-20T00:24:48.824Z,101033.75
2022-12-20T00:27:21.174Z,101034.72
2022-12-20T00:29:50.897Z,101037.34
2022-12-20T00:32:20.918Z,101029.53
2022-12-20T00:34:50.823Z,101029.53
2022-12-20T00:37:20.657Z,101028.75
2022-12-20T00:39:50.717Z,101027.00
2022-12-20T00:42:23.188Z,101032.34
2022-12-20T00:44:53.014Z,101030.53
2022-12-20T00:47:22.793Z,101022.78
2022-12-20T00:49:52.666Z,101022.81
2022-12-20T00:52:22.875Z,101024.63
2022-12-20T00:54:52.659Z,101022.13
2022-12-20T00:57:25.130Z,101020.38
2022-12-20T00:59:54.988Z,101024.69
2022-12-20T01:02:24.911Z,101016.78
2022-12-20T01:04:54.774Z,101014.25
2022-12-20T01:07:24.848Z,101016.91
2022-12-20T01:09:54.936Z,101016.88
2022-12-20T01:12:27.354Z,101007.25
2022-12-20T01:14:57.207Z,101016.88
2022-12-20T01:17:26.943Z,101019.53
2022-12-20T01:19:56.722Z,101016.91
2022-12-20T01:22:26.561Z,101016.91
2022-12-20T01:24:56.351Z,101006.38
2022-12-20T01:27:29.040Z,101007.31
2022-12-20T01:29:58.775Z,101010.81
2022-12-20T01:32:28.557Z,101006.38
2022-12-20T01:34:58.321Z,101006.38
2022-12-20T01:37:28.214Z,101009.00
2022-12-20T01:39:57.956Z,101013.53
2022-12-20T01:42:30.409Z,101009.97
2022-12-20T01:45:03.227Z,101009.19
2022-12-20T01:47:37.443Z,100996.94
2022-12-20T01:50:09.282Z,100996.03
2022-12-20T01:52:42.546Z,100996.94
2022-12-20T01:55:16.075Z,100994.34
2022-12-20T01:57:52.272Z,100976.78
2022-12-20T02:00:23.327Z,100990.00
2022-12-20T02:02:54.435Z,100987.31
2022-12-20T02:05:26.591Z,100984.59
2022-12-20T02:07:59.411Z,100980.28
2022-12-20T02:10:42.441Z,100987.31
2022-12-20T02:13:23.498Z,100983.78
2022-12-20T02:15:58.072Z,100973.19
2022-12-20T02:18:33.016Z,100980.28
2022-12-20T02:21:17.373Z,100978.44
2022-12-20T02:24:19.575Z,100975.03
2022-12-20T02:27:22.193Z,100977.53
2022-12-20T02:30:11.776Z,100967.91
2022-12-20T02:32:47.263Z,100966.16
2022-12-20T02:35:21.498Z,100964.41
2022-12-20T02:37:53.129Z,100960.13
2022-12-20T02:40:26.668Z,100961.88
2022-12-20T02:43:02.283Z,100950.50
2022-12-20T02:45:35.274Z,100946.88
2022-12-20T02:48:08.007Z,100949.66
2022-12-20T02:50:41.418Z,100934.75
2022-12-20T02:53:12.863Z,100938.34
2022-12-20T02:55:49.067Z,100934.84
2022-12-20T02:58:24.659Z,100940.94
2022-12-20T03:01:04.598Z,100943.56
2022-12-20T03:03:36.488Z,100941.78
2022-12-20T03:06:07.117Z,100938.25
2022-12-20T03:08:36.857Z,100925.97
2022-12-20T03:11:06.664Z,100945.25
2022-12-20T03:13:36.460Z,100925.81
2022-12-20T03:16:10.857Z,100929.34
2022-12-20T03:18:41.267Z,100930.22
2022-12-20T03:21:11.286Z,100930.22
2022-12-20T03:23:41.162Z,100938.97
2022-12-20T03:26:10.943Z,100931.97
2022-12-20T03:28:40.813Z,100939.84
2022-12-20T03:31:15.536Z,100931.91
2022-12-20T03:33:45.543Z,100939.75
2022-12-20T03:36:15.450Z,100937.13
2022-12-20T03:38:45.294Z,100937.94
2022-12-20T03:41:15.157Z,100937.13
2022-12-20T03:43:45.188Z,100934.50
2022-12-20T03:46:18.024Z,100933.63
2022-12-20T03:48:48.051Z,100932.69
2022-12-20T03:51:17.904Z,100937.94
2022-12-20T03:53:47.953Z,100936.19
2022-12-20T03:56:17.790Z,100939.63
2022-12-20T03:58:47.718Z,100936.94
2022-12-20T04:01:25.961Z,100936.06
2022-12-20T04:03:55.983Z,100943.09
2022-12-20T04:06:27.062Z,100939.50
2022-12-20T04:08:56.940Z,100936.94
2022-12-20T04:11:26.715Z,100943.97
2022-12-20T04:13:57.212Z,100942.19
2022-12-20T04:16:31.407Z,100940.47
2022-12-20T04:19:01.332Z,100930.81
2022-12-20T04:21:33.340Z,100924.69
2022-12-20T04:24:04.700Z,100929.06
2022-12-20T04:26:34.542Z,100929.00
2022-12-20T04:29:04.296Z,100924.63
2022-12-20T04:31:36.686Z,100921.13
2022-12-20T04:34:06.588Z,100919.44
2022-12-20T04:36:36.893Z,100921.22
2022-12-20T04:39:06.833Z,100917.69
2022-12-20T04:41:36.571Z,100909.03
2022-12-20T04:44:06.386Z,100903.84
2022-12-20T04:46:38.921Z,100910.84
2022-12-20T04:49:08.711Z,100901.41
2022-12-20T04:51:38.435Z,100903.19
2022-12-20T04:54:06.042Z,100903.25
2022-12-20T04:56:35.843Z,100905.94
2022-12-20T04:59:05.599Z,100898.09
2022-12-20T05:01:38.149Z,100894.63
2022-12-20T05:04:08.182Z,100886.81
2022-12-20T05:06:37.980Z,100889.47
2022-12-20T05:09:07.739Z,100885.16
2022-12-20T05:11:37.455Z,100890.50
2022-12-20T05:14:07.178Z,100879.19
2022-12-20T05:16:40.284Z,100878.34
2022-12-20T05:19:23.111Z,100881.03
2022-12-20T05:22:12.151Z,100886.34
2022-12-20T05:24:57.094Z,100872.25
2022-12-20T05:27:31.069Z,100885.44
2022-12-20T05:30:04.566Z,100878.47
2022-12-20T05:32:52.941Z,100869.81
2022-12-20T05:35:24.738Z,100863.59
2022-12-20T05:37:54.619Z,100868.06
2022-12-20T05:40:24.523Z,100868.16
2022-12-20T05:42:59.458Z,100855.06
2022-12-20T05:45:29.386Z,100862.94
2022-12-20T05:48:01.849Z,100858.66
2022-12-20T05:50:31.676Z,100856.94
2022-12-20T05:53:05.961Z,100851.75
2022-12-20T05:55:40.590Z,100849.19
2022-12-20T05:58:13.459Z,100846.63
2022-12-20T06:00:44.147Z,100854.56
2022-12-20T06:03:17.318Z,100854.63
2022-12-20T06:05:47.722Z,100852.00
2022-12-20T06:08:17.539Z,100854.72
2022-12-20T06:10:47.248Z,100851.19
2022-12-20T06:13:16.986Z,100859.97
2022-12-20T06:15:47.130Z,100858.28
2022-12-20T06:18:19.540Z,100857.34
2022-12-20T06:20:53.194Z,100864.44
2022-12-20T06:23:23.535Z,100856.50
2022-12-20T06:25:53.313Z,100856.56
2022-12-20T06:28:23.583Z,100862.69
2022-12-20T06:30:56.906Z,100852.19
2022-12-20T06:33:29.384Z,100857.50
2022-12-20T06:35:59.218Z,100858.38
2022-12-20T06:38:28.991Z,100847.94
2022-12-20T06:40:58.800Z,100851.44
2022-12-20T06:43:28.681Z,100842.66
2022-12-20T06:45:58.465Z,100847.06
2022-12-20T06:48:30.954Z,100841.00
2022-12-20T06:51:01.054Z,100841.00
2022-12-20T06:53:30.912Z,100842.75
2022-12-20T06:56:00.693Z,100844.50
2022-12-20T06:58:30.657Z,100833.97
2022-12-20T07:01:02.168Z,100833.13
2022-12-20T07:03:34.718Z,100839.34
2022-12-20T07:06:04.759Z,100846.38
2022-12-20T07:08:34.506Z,100849.94
2022-12-20T07:11:08.002Z,100838.53
2022-12-20T07:13:38.499Z,100846.44
2022-12-20T07:16:10.387Z,100847.31
2022-12-20T07:18:42.827Z,100841.19
2022-12-20T07:21:14.227Z,100847.31
2022-12-20T07:23:43.946Z,100843.00
2022-12-20T07:26:13.911Z,100843.97
2022-12-20T07:28:44.135Z,100841.41
2022-12-20T07:31:14.050Z,100842.38
2022-12-20T07:33:46.459Z,100850.25
2022-12-20T07:36:17.351Z,100845.81
2022-12-20T07:38:47.194Z,100846.75
2022-12-20T07:41:18.756Z,100845.78
2022-12-20T07:43:48.706Z,100839.66
2022-12-20T07:46:19.908Z,100834.38
2022-12-20T07:48:52.383Z,100836.22
2022-12-20T07:51:26.664Z,100844.06
2022-12-20T07:54:01.820Z,100835.31
2022-12-20T07:56:40.555Z,100834.41
2022-12-20T07:59:14.311Z,100831.75
2022-12-20T08:01:46.828Z,100832.63
2022-12-20T08:04:23.760Z,100826.53
2022-12-20T08:06:55.941Z,100830.00
2022-12-20T08:09:26.679Z,100835.28
2022-12-20T08:11:57.368Z,100820.28
2022-12-20T08:14:27.358Z,100814.06
2022-12-20T08:16:57.155Z,100823.72
2022-12-20T08:19:32.611Z,100821.91
2022-12-20T08:22:02.839Z,100813.97
2022-12-20T08:24:32.558Z,100818.34
2022-12-20T08:27:02.276Z,100820.06
2022-12-20T08:29:31.993Z,100804.25
2022-12-20T08:32:01.716Z,100801.63
2022-12-20T08:34:34.059Z,100799.88
2022-12-20T08:37:09.053Z,100794.63
2022-12-20T08:39:42.205Z,100805.13
2022-12-20T08:42:12.488Z,100801.66
2022-12-20T08:44:42.239Z,100797.31
2022-12-20T08:47:12.156Z,100800.84
2022-12-20T08:49:47.840Z,100801.78
2022-12-20T08:52:18.023Z,100794.75
2022-12-20T08:54:47.833Z,100800.97
2022-12-20T08:57:17.766Z,100800.06
2022-12-20T08:59:47.636Z,100799.25
2022-12-20T09:02:17.638Z,100796.69
2022-12-20T09:04:50.235Z,100802.03
2022-12-20T09:07:22.078Z,100801.25
2022-12-20T09:09:55.531Z,100794.22
2022-12-20T09:12:25.584Z,100786.34
2022-12-20T09:14:57.784Z,100793.44
2022-12-20T09:17:27.649Z,100797.00
2022-12-20T09:20:00.350Z,100792.63
2022-12-20T09:22:31.739Z,100788.31
2022-12-20T09:25:01.650Z,100784.88
2022-12-20T09:27:31.600Z,100783.16
2022-12-20T09:30:01.494Z,100775.31
2022-12-20T09:32:31.359Z,100774.50
2022-12-20T09:35:03.843Z,100784.25
2022-12-20T09:37:34.212Z,100783.34
2022-12-20T09:40:04.689Z,100783.34
2022-12-20T09:42:37.390Z,100786.06
2022-12-20T09:45:12.077Z,100787.91
2022-12-20T09:47:42.169Z,100791.41
2022-12-20T09:50:20.467Z,100791.53
2022-12-20T09:53:03.063Z,100793.38
2022-12-20T09:55:42.444Z,100790.75
2022-12-20T09:58:32.925Z,100792.59
2022-12-20T10:01:24.433Z,100775.97
2022-12-20T10:03:56.270Z,100784.69
2022-12-20T10:06:37.683Z,100786.53
2022-12-20T10:09:13.735Z,100790.03
2022-12-20T10:12:01.079Z,100789.16
2022-12-20T10:14:44.574Z,100790.03
2022-12-20T10:17:20.075Z,100786.53
2022-12-20T10:20:11.850Z,100771.66
2022-12-20T10:22:50.827Z,100782.16
2022-12-20T10:25:23.327Z,100778.63
2022-12-20T10:27:58.745Z,100784.78
2022-12-20T10:30:36.342Z,100779.50
2022-12-20T10:33:06.343Z,100783.94
2022-12-20T10:35:40.982Z,100775.25
2022-12-20T10:38:17.721Z,100778.75
2022-12-20T10:43:45.326Z,100768.25
2022-12-20T10:46:18.318Z,100768.25
2022-12-20T10:48:50.922Z,100759.44
2022-12-20T10:51:22.731Z,100746.28
2022-12-20T10:54:04.065Z,100750.75
2022-12-20T10:56:36.690Z,100750.75
2022-12-20T10:59:27.319Z,100743.78
2022-12-20T11:01:57.239Z,100743.72
2022-12-20T11:04:31.360Z,100735.84
2022-12-20T11:07:02.012Z,100742.03
2022-12-20T11:09:36.491Z,100740.34
2022-12-20T11:12:09.963Z,100736.84
2022-12-20T11:14:43.280Z,100736.84
2022-12-20T11:17:34.391Z,100740.38
2022-12-20T11:20:28.794Z,100743.94
2022-12-20T11:23:10.799Z,100751.84
2022-12-20T11:25:59.299Z,100743.13
2022-12-20T11:28:49.148Z,100742.19
2022-12-20T11:31:26.363Z,100745.69
2022-12-20T11:34:30.433Z,100753.66
2022-12-20T11:37:13.210Z,100743.94
2022-12-20T11:39:57.967Z,100739.53
2022-12-20T11:42:40.624Z,100739.50
2022-12-20T11:45:18.500Z,100738.47
2022-12-20T11:48:06.560Z,100735.88
2022-12-20T11:51:04.908Z,100738.47
2022-12-20T11:53:40.453Z,100748.13
2022-12-20T11:56:36.238Z,100732.31
2022-12-20T11:59:23.683Z,100737.53
2022-12-20T12:02:05.819Z,100734.06
2022-12-20T12:04:42.210Z,100728.81
2022-12-20T12:07:16.989Z,100720.91
2022-12-20T12:09:59.247Z,100718.28
2022-12-20T12:12:32.583Z,100720.09
2022-12-20T12:15:16.904Z,100731.50
2022-12-20T12:17:52.543Z,100728.88
2022-12-20T12:20:29.032Z,100719.16
2022-12-20T12:23:06.172Z,100727.00
2022-12-20T12:25:36.145Z,100727.00
2022-12-20T12:28:08.725Z,100716.44
2022-12-20T12:30:50.625Z,100719.09
2022-12-20T12:33:31.766Z,100719.06
2022-12-20T12:36:37.299Z,100722.59
2022-12-20T12:39:38.050Z,100727.00
2022-12-20T12:42:39.847Z,100732.22
2022-12-20T12:45:21.002Z,100714.56
2022-12-20T12:47:57.980Z,100711.84
2022-12-20T12:50:36.196Z,100713.59
2022-12-20T12:53:11.255Z,100715.34
2022-12-20T12:55:44.760Z,100714.41
2022-12-20T12:58:48.770Z,100703.88
2022-12-20T13:01:56.292Z,100702.06
2022-12-20T13:04:35.669Z,100716.03
2022-12-20T13:07:38.952Z,100709.00
2022-12-20T13:10:52.037Z,100710.72
2022-12-20T13:13:27.825Z,100705.50
2022-12-20T13:19:40.515Z,100707.25
2022-12-20T13:22:25.080Z,100702.84
2022-12-20T13:25:04.757Z,100698.47
2022-12-20T13:27:45.298Z,100704.66
2022-12-20T13:30:30.782Z,100702.91
2022-12-20T13:33:26.109Z,100716.97
2022-12-20T13:36:39.475Z,100714.34
2022-12-20T13:39:36.473Z,100716.03
2022-12-20T13:42:34.052Z,100713.38
2022-12-20T13:45:09.957Z,100715.19
2022-12-20T13:47:49.544Z,100713.38
2022-12-20T13:50:34.081Z,100711.69
2022-12-20T13:53:16.179Z,100713.38
2022-12-20T13:55:54.470Z,100705.50
2022-12-20T13:58:41.400Z,100711.69
2022-12-20T14:01:27.050Z,100708.13
2022-12-20T14:04:07.447Z,100713.44
2022-12-20T14:06:38.498Z,100720.47
2022-12-20T14:09:52.785Z,100716.03
2022-12-20T14:12:36.529Z,100728.28
2022-12-20T14:15:41.556Z,100730.06
2022-12-20T14:18:29.615Z,100734.44
2022-12-20T14:21:12.351Z,100736.25
2022-12-20T14:23:53.083Z,100730.03
2022-12-20T14:26:32.614Z,100734.44
2022-12-20T14:29:20.203Z,100727.44
2022-12-20T14:32:00.235Z,100743.16
2022-12-20T14:34:41.794Z,100735.25
2022-12-20T14:37:33.272Z,100732.69
2022-12-20T14:40:29.725Z,100743.16
2022-12-20T14:43:42.204Z,100740.56
2022-12-20T14:46:35.304Z,100737.09
2022-12-20T14:49:21.366Z,100742.34
2022-12-20T14:51:52.280Z,100742.34
2022-12-20T14:55:05.645Z,100732.69
2022-12-20T14:57:23.132Z,100730.06
2022-12-20T15:00:15.794Z,100737.13
2022-12-20T15:02:52.912Z,100731.00
2022-12-20T15:05:51.239Z,100737.16
2022-12-20T15:08:25.088Z,100744.16
2022-12-20T15:11:04.077Z,100747.66
2022-12-20T15:13:36.379Z,100745.88
2022-12-20T15:16:18.639Z,100744.09
2022-12-20T15:18:49.752Z,100750.16
2022-12-20T15:21:25.083Z,100751.91
2022-12-20T15:24:00.035Z,100758.91
2022-12-20T15:26:31.197Z,100765.88
2022-12-20T15:29:01.256Z,100758.91
2022-12-20T15:31:37.978Z,100751.81
2022-12-20T15:34:16.383Z,100761.50
2022-12-20T15:36:46.179Z,100760.53
2022-12-20T15:39:16.490Z,100762.28
2022-12-20T15:41:48.553Z,100759.59
2022-12-20T15:44:22.099Z,100755.25
2022-12-20T15:46:55.005Z,100762.28
2022-12-20T15:49:26.588Z,100772.81
2022-12-20T15:51:57.547Z,100773.78
2022-12-20T15:54:29.763Z,100773.78
2022-12-20T15:57:03.179Z,100775.53
2022-12-20T15:59:58.959Z,100777.34
2022-12-20T16:02:29.800Z,100781.75
2022-12-20T16:05:00.061Z,100775.59
2022-12-20T16:07:30.036Z,100783.53
2022-12-20T16:10:03.072Z,100783.53
2022-12-20T16:12:37.582Z,100785.34
2022-12-20T16:15:08.551Z,100785.31
2022-12-20T16:17:44.164Z,100780.88
2022-12-20T16:20:14.953Z,100782.56
2022-12-20T16:22:44.862Z,100785.19
2022-12-20T16:25:27.573Z,100785.25
2022-12-20T16:27:57.405Z,100781.66
2022-12-20T16:30:30.521Z,100776.34
2022-12-20T16:33:02.925Z,100781.59
2022-12-20T16:35:36.410Z,100785.09
2022-12-20T16:38:07.353Z,100790.31
2022-12-20T16:40:37.240Z,100785.91
2022-12-20T16:43:07.913Z,100787.59
2022-12-20T16:45:37.676Z,100791.03
2022-12-20T16:48:10.218Z,100789.31
2022-12-20T16:50:43.533Z,100802.44
2022-12-20T16:53:16.988Z,100796.22
2022-12-20T16:55:46.817Z,100796.19
2022-12-20T16:58:16.602Z,100796.13
2022-12-20T17:00:46.445Z,100797.72
2022-12-20T17:03:18.901Z,100786.25
2022-12-20T17:05:48.744Z,100796.69
2022-12-20T17:11:02.269Z,100798.38
2022-12-20T17:13:32.156Z,100802.69
2022-12-20T17:16:01.912Z,100814.97
2022-12-20T17:18:34.420Z,100821.97
2022-12-20T17:21:04.762Z,100819.25
2022-12-20T17:23:44.095Z,100814.88
2022-12-20T17:26:18.271Z,100821.00
2022-12-20T17:28:48.072Z,100821.00
2022-12-20T17:31:30.509Z,100820.13
2022-12-20T17:34:05.437Z,100810.41
2022-12-20T17:36:38.022Z,100820.06
2022-12-20T17:39:08.118Z,100813.03
2022-12-20T17:41:38.050Z,100818.28
2022-12-20T17:44:09.543Z,100816.53
2022-12-20T17:46:39.300Z,100821.72
2022-12-20T17:49:11.732Z,100834.00
2022-12-20T17:51:41.625Z,100838.44
2022-12-20T17:54:20.282Z,100829.75
2022-12-20T17:56:50.870Z,100830.59
2022-12-20T17:59:21.922Z,100831.44
2022-12-20T18:01:52.344Z,100830.56
2022-12-20T18:04:24.920Z,100834.97
2022-12-20T18:06:54.716Z,100828.81
2022-12-20T18:09:24.699Z,100827.97
2022-12-20T18:11:54.444Z,100834.94
2022-12-20T18:14:24.179Z,100827.03
2022-12-20T18:16:55.681Z,100831.34
2022-12-20T18:19:28.174Z,100826.91
2022-12-20T18:21:58.254Z,100830.41
2022-12-20T18:24:28.154Z,100833.91
2022-12-20T18:26:57.909Z,100836.50
2022-12-20T18:29:28.622Z,100829.44
2022-12-20T18:31:58.458Z,100835.59
2022-12-20T18:34:30.987Z,100829.44
2022-12-20T18:37:01.984Z,100832.94
2022-12-20T18:39:31.760Z,100833.66
2022-12-20T18:42:01.493Z,100836.31
2022-12-20T18:44:35.964Z,100841.56
2022-12-20T18:47:06.578Z,100840.63
2022-12-20T18:49:38.924Z,100846.75
2022-12-20T18:52:08.855Z,100847.63
2022-12-20T18:54:38.607Z,100845.78
2022-12-20T18:57:08.788Z,100840.47
2022-12-20T18:59:38.564Z,100843.94
2022-12-20T19:02:08.596Z,100837.72
2022-12-20T19:04:41.151Z,100841.31
2022-12-20T19:07:11.299Z,100843.06
2022-12-20T19:09:41.034Z,100843.88
2022-12-20T19:12:10.939Z,100845.63
2022-12-20T19:14:40.663Z,100848.31
2022-12-20T19:17:10.513Z,100850.00
2022-12-20T19:19:42.938Z,100843.88
2022-12-20T19:22:12.726Z,100850.00
2022-12-20T19:24:42.998Z,100847.25
2022-12-20T19:27:12.842Z,100851.56
2022-12-20T19:29:45.447Z,100844.41
2022-12-20T19:32:15.695Z,100855.72
2022-12-20T19:34:48.092Z,100848.69
2022-12-20T19:37:18.351Z,100850.44
2022-12-20T19:39:48.098Z,100849.56
2022-12-20T19:42:25.537Z,100857.44
2022-12-20T19:44:55.486Z,100864.38
2022-12-20T19:47:26.449Z,100858.19
2022-12-20T19:49:58.798Z,100854.63
2022-12-20T19:52:29.226Z,100860.72
2022-12-20T19:54:59.115Z,100858.00
2022-12-20T19:57:29.036Z,100860.63
2022-12-20T19:59:58.808Z,100855.25
2022-12-20T20:02:28.910Z,100845.56
2022-12-20T20:05:01.507Z,100842.94
2022-12-20T20:07:31.445Z,100848.16
2022-12-20T20:10:01.214Z,100842.00
2022-12-20T20:12:30.994Z,100842.00
2022-12-20T20:15:00.812Z,100844.56
2022-12-20T20:17:30.664Z,100854.22
2022-12-20T20:20:02.979Z,100845.38
2022-12-20T20:22:32.740Z,100854.88
2022-12-20T20:25:02.469Z,100854.88
2022-12-20T20:27:32.246Z,100853.13
2022-12-20T20:30:01.970Z,100880.22
2022-12-20T20:32:31.990Z,100879.28
2022-12-20T20:35:04.375Z,100885.38
2022-12-20T20:37:34.155Z,100873.91
2022-12-20T20:40:03.922Z,100876.53
2022-12-20T20:42:33.706Z,100874.75
2022-12-20T20:45:03.554Z,100866.78
2022-12-20T20:47:33.339Z,100870.28
2022-12-20T20:50:05.715Z,100875.53
2022-12-20T20:52:35.584Z,100871.19
2022-12-20T20:55:05.372Z,100875.47
2022-12-20T20:57:35.139Z,100880.72
2022-12-20T21:00:05.462Z,100877.16
2022-12-20T21:02:35.353Z,100867.50
2022-12-20T21:05:58.633Z,100868.38
2022-12-20T21:07:59.333Z,100864.88
2022-12-20T21:10:29.229Z,100865.81
2022-12-20T21:12:59.053Z,100863.19
2022-12-20T21:15:28.874Z,100861.53
2022-12-20T21:17:58.864Z,100867.72
2022-12-20T21:20:31.344Z,100867.84
2022-12-20T21:23:01.632Z,100866.16
2022-12-20T21:25:32.041Z,100864.41
2022-12-20T21:28:02.115Z,100867.94
2022-12-20T21:30:32.064Z,100868.81
2022-12-20T21:33:01.772Z,100869.72
2022-12-20T21:35:34.254Z,100862.69
2022-12-20T21:38:04.165Z,100870.47
2022-12-20T21:40:33.939Z,100865.13
2022-12-20T21:43:03.887Z,100867.72
2022-12-20T21:45:36.496Z,100868.56
2022-12-20T21:48:06.274Z,100874.59
2022-12-20T21:50:38.596Z,100874.53
2022-12-20T21:53:09.942Z,100885.81
2022-12-20T21:55:42.529Z,100883.94
2022-12-20T21:58:12.244Z,100875.88
2022-12-20T22:00:42.220Z,100878.41
2022-12-20T22:03:12.101Z,100875.66
2022-12-20T22:05:48.946Z,100877.34
2022-12-20T22:08:19.076Z,100881.56
2022-12-20T22:10:50.057Z,100872.69
2022-12-20T22:13:19.836Z,100886.53
2022-12-20T22:15:49.596Z,100890.00
2022-12-20T22:18:19.416Z,100895.94
2022-12-20T22:20:51.755Z,100907.16
2022-12-20T22:23:21.503Z,100914.84
2022-12-20T22:25:51.226Z,100896.44
2022-12-20T22:28:20.946Z,100895.47
2022-12-20T22:30:52.368Z,100886.56
2022-12-20T22:33:22.112Z,100892.59
2022-12-20T22:35:54.495Z,100895.19
2022-12-20T22:38:24.265Z,100899.38
2022-12-20T22:40:58.899Z,100901.97
2022-12-20T22:43:28.843Z,100901.91
2022-12-20T22:46:00.180Z,100888.72
2022-12-20T22:48:30.079Z,100888.66
2022-12-20T22:51:07.344Z,100901.00
2022-12-20T22:53:38.305Z,100900.94
2022-12-20T22:56:09.355Z,100903.56
2022-12-20T22:58:41.411Z,100907.94
2022-12-20T23:01:14.503Z,100903.53
2022-12-20T23:03:44.991Z,100900.91
2022-12-20T23:06:20.189Z,100906.16
2022-12-20T23:08:50.843Z,100913.06
2022-12-20T23:11:36.076Z,100911.25
2022-12-20T23:14:19.776Z,100919.97
2022-12-20T23:16:49.677Z,100910.25
2022-12-20T23:19:19.545Z,100904.94
2022-12-20T23:22:04.344Z,100899.69
2022-12-20T23:24:34.149Z,100887.34
2022-12-20T23:27:03.923Z,100880.38
2022-12-20T23:29:33.784Z,100888.25
2022-12-20T23:32:03.630Z,100892.66
2022-12-20T23:34:33.561Z,100896.91
2022-12-20T23:37:05.870Z,100889.81
2022-12-20T23:39:35.949Z,100892.34
2022-12-20T23:42:05.745Z,100898.38
2022-12-20T23:44:35.558Z,100897.41
2022-12-20T23:47:05.320Z,100899.91
2022-12-20T23:49:35.055Z,100905.06
2022-12-20T23:52:07.739Z,100905.81
2022-12-20T23:54:37.488Z,100900.50
2022-12-20T23:57:07.286Z,100913.56
2022-12-20T23:59:36.990Z,100912.53
